sensor_id;sensor_type;location;lat;lon;timestamp;pressure;altitude;pressure_sealevel;temperature;humidity
12973;BME280;6551;51.056;9.466;2022-11-20T00:01:41;97205.22;;;-3.49;69.52
12973;BME280;6551;51.056;9.466;2022-11-20T00:04:10;97205.09;;;-3.47;68.99
12973;BME280;6551;51.056;9.466;2022-11-20T00:06:36;97205.75;;;-3.45;69.43
12973;BME280;6551;51.056;9.466;2022-11-20T00:09:02;97201.94;;;-3.51;69.79
12973;BME280;6551;51.056;9.466;2022-11-20T00:11:30;97190.44;;;-3.58;69.33
12973;BME280;6551;51.056;9.466;2022-11-20T00:13:58;97190.66;;;-3.79;68.57
12973;BME280;6551;51.056;9.466;2022-11-20T00:16:27;97191.88;;;-3.73;68.65
12973;BME280;6551;51.056;9.466;2022-11-20T00:18:54;97194.91;;;-3.78;68.69
12973;BME280;6551;51.056;9.466;2022-11-20T00:21:26;97193.41;;;-3.80;68.98
12973;BME280;6551;51.056;9.466;2022-11-20T00:23:54;97192.31;;;-3.78;69.14
12973;BME280;6551;51.056;9.466;2022-11-20T00:26:22;97200.28;;;-3.89;68.92
12973;BME280;6551;51.056;9.466;2022-11-20T00:28:59;97197.41;;;-3.95;69.43
12973;BME280;6551;51.056;9.466;2022-11-20T00:31:26;97195.09;;;-3.89;70.04
12973;BME280;6551;51.056;9.466;2022-11-20T00:33:53;97193.41;;;-3.80;70.43
12973;BME280;6551;51.056;9.466;2022-11-20T00:36:22;97202.41;;;-3.65;71.35
12973;BME280;6551;51.056;9.466;2022-11-20T00:38:55;97203.72;;;-3.51;70.64
12973;BME280;6551;51.056;9.466;2022-11-20T00:41:21;97204.81;;;-3.44;70.17
12973;BME280;6551;51.056;9.466;2022-11-20T00:43:47;97193.66;;;-3.37;69.90
12973;BME280;6551;51.056;9.466;2022-11-20T00:46:16;97193.47;;;-3.26;69.21
12973;BME280;6551;51.056;9.466;2022-11-20T00:48:43;97187.75;;;-3.66;69.58
12973;BME280;6551;51.056;9.466;2022-11-20T00:51:11;97188.03;;;-3.69;69.53
12973;BME280;6551;51.056;9.466;2022-11-20T00:53:38;97188.84;;;-3.69;69.70
12973;BME280;6551;51.056;9.466;2022-11-20T00:56:07;97180.81;;;-3.75;69.89
12973;BME280;6551;51.056;9.466;2022-11-20T00:58:39;97183.41;;;-3.75;70.04
12973;BME280;6551;51.056;9.466;2022-11-20T01:01:14;97175.34;;;-3.72;69.68
12973;BME280;6551;51.056;9.466;2022-11-20T01:03:43;97174.50;;;-3.73;69.38
12973;BME280;6551;51.056;9.466;2022-11-20T01:06:12;97165.88;;;-3.73;69.58
12973;BME280;6551;51.056;9.466;2022-11-20T01:08:39;97159.72;;;-3.72;69.53
12973;BME280;6551;51.056;9.466;2022-11-20T01:11:12;97163.53;;;-3.67;69.55
12973;BME280;6551;51.056;9.466;2022-11-20T01:13:38;97157.63;;;-3.69;69.13
12973;BME280;6551;51.056;9.466;2022-11-20T01:16:17;97155.28;;;-3.62;70.02
12973;BME280;6551;51.056;9.466;2022-11-20T01:18:46;97157.16;;;-3.55;69.95
12973;BME280;6551;51.056;9.466;2022-11-20T01:21:16;97160.44;;;-3.53;70.58
12973;BME280;6551;51.056;9.466;2022-11-20T01:23:44;97154.28;;;-3.51;69.39
12973;BME280;6551;51.056;9.466;2022-11-20T01:26:31;97147.50;;;-3.62;68.09
12973;BME280;6551;51.056;9.466;2022-11-20T01:28:58;97146.28;;;-3.68;67.81
12973;BME280;6551;51.056;9.466;2022-11-20T01:31:30;97142.66;;;-3.84;67.55
12973;BME280;6551;51.056;9.466;2022-11-20T01:34:00;97138.97;;;-3.91;68.75
12973;BME280;6551;51.056;9.466;2022-11-20T01:36:29;97138.66;;;-3.79;69.06
12973;BME280;6551;51.056;9.466;2022-11-20T01:38:58;97140.06;;;-3.84;68.72
12973;BME280;6551;51.056;9.466;2022-11-20T01:41:27;97138.59;;;-3.69;68.73
12973;BME280;6551;51.056;9.466;2022-11-20T01:44:18;97142.03;;;-3.69;68.48
12973;BME280;6551;51.056;9.466;2022-11-20T01:47:00;97141.47;;;-3.63;68.75
12973;BME280;6551;51.056;9.466;2022-11-20T01:49:38;97136.41;;;-3.64;68.69
12973;BME280;6551;51.056;9.466;2022-11-20T01:52:19;97127.50;;;-3.62;69.19
12973;BME280;6551;51.056;9.466;2022-11-20T01:55:11;97131.78;;;-3.70;68.43
12973;BME280;6551;51.056;9.466;2022-11-20T01:57:38;97140.44;;;-3.79;68.01
12973;BME280;6551;51.056;9.466;2022-11-20T02:00:13;97147.84;;;-3.84;67.44
12973;BME280;6551;51.056;9.466;2022-11-20T02:02:43;97140.63;;;-3.90;68.12
12973;BME280;6551;51.056;9.466;2022-11-20T02:05:26;97147.47;;;-3.99;68.44
12973;BME280;6551;51.056;9.466;2022-11-20T02:07:54;97148.03;;;-4.05;68.50
12973;BME280;6551;51.056;9.466;2022-11-20T02:10:22;97140.13;;;-4.13;67.78
12973;BME280;6551;51.056;9.466;2022-11-20T02:12:48;97139.63;;;-4.17;68.72
12973;BME280;6551;51.056;9.466;2022-11-20T02:15:33;97132.28;;;-4.59;68.49
12973;BME280;6551;51.056;9.466;2022-11-20T02:17:59;97137.34;;;-4.77;69.63
12973;BME280;6551;51.056;9.466;2022-11-20T02:20:25;97126.81;;;-4.85;69.97
12973;BME280;6551;51.056;9.466;2022-11-20T02:23:17;97122.75;;;-4.97;70.09
12973;BME280;6551;51.056;9.466;2022-11-20T02:25:47;97125.59;;;-4.91;70.63
12973;BME280;6551;51.056;9.466;2022-11-20T02:28:13;97120.53;;;-4.83;70.74
12973;BME280;6551;51.056;9.466;2022-11-20T02:30:39;97116.84;;;-4.80;71.05
12973;BME280;6551;51.056;9.466;2022-11-20T02:33:04;97119.28;;;-4.69;71.92
12973;BME280;6551;51.056;9.466;2022-11-20T02:37:59;97119.06;;;-4.10;72.78
12973;BME280;6551;51.056;9.466;2022-11-20T02:40:26;97118.53;;;-3.77;73.27
12973;BME280;6551;51.056;9.466;2022-11-20T02:42:53;97117.31;;;-3.55;71.94
12973;BME280;6551;51.056;9.466;2022-11-20T02:45:19;97104.31;;;-3.55;72.31
12973;BME280;6551;51.056;9.466;2022-11-20T02:47:44;97109.84;;;-3.40;72.67
12973;BME280;6551;51.056;9.466;2022-11-20T02:50:11;97107.59;;;-3.26;73.28
12973;BME280;6551;51.056;9.466;2022-11-20T02:52:37;97107.28;;;-3.23;71.93
12973;BME280;6551;51.056;9.466;2022-11-20T02:55:04;97103.66;;;-3.12;72.88
12973;BME280;6551;51.056;9.466;2022-11-20T02:57:29;97104.25;;;-3.01;73.48
12973;BME280;6551;51.056;9.466;2022-11-20T02:59:55;97112.50;;;-2.87;72.96
12973;BME280;6551;51.056;9.466;2022-11-20T03:02:21;97106.25;;;-2.77;73.55
12973;BME280;6551;51.056;9.466;2022-11-20T03:04:47;97106.38;;;-2.61;73.30
12973;BME280;6551;51.056;9.466;2022-11-20T03:07:12;97107.78;;;-2.49;72.82
12973;BME280;6551;51.056;9.466;2022-11-20T03:09:38;97107.56;;;-2.38;72.78
12973;BME280;6551;51.056;9.466;2022-11-20T03:12:04;97111.09;;;-2.21;72.60
12973;BME280;6551;51.056;9.466;2022-11-20T03:14:30;97111.31;;;-2.14;72.08
12973;BME280;6551;51.056;9.466;2022-11-20T03:16:56;97106.13;;;-2.06;73.10
12973;BME280;6551;51.056;9.466;2022-11-20T03:19:23;97099.50;;;-2.01;73.02
12973;BME280;6551;51.056;9.466;2022-11-20T03:21:48;97100.50;;;-1.94;72.95
12973;BME280;6551;51.056;9.466;2022-11-20T03:24:14;97105.25;;;-1.89;71.78
12973;BME280;6551;51.056;9.466;2022-11-20T03:26:40;97097.22;;;-1.96;71.65
12973;BME280;6551;51.056;9.466;2022-11-20T03:29:06;97102.28;;;-1.94;72.31
12973;BME280;6551;51.056;9.466;2022-11-20T03:31:38;97099.50;;;-2.01;72.13
12973;BME280;6551;51.056;9.466;2022-11-20T03:34:07;97101.84;;;-1.90;72.52
12973;BME280;6551;51.056;9.466;2022-11-20T03:36:33;97092.25;;;-1.81;73.29
12973;BME280;6551;51.056;9.466;2022-11-20T03:38:59;97095.91;;;-1.66;73.67
12973;BME280;6551;51.056;9.466;2022-11-20T03:41:28;97083.88;;;-1.59;73.24
12973;BME280;6551;51.056;9.466;2022-11-20T03:44:00;97081.47;;;-1.44;72.58
12973;BME280;6551;51.056;9.466;2022-11-20T03:46:27;97084.91;;;-1.36;73.54
12973;BME280;6551;51.056;9.466;2022-11-20T03:48:54;97085.63;;;-1.26;73.35
12973;BME280;6551;51.056;9.466;2022-11-20T03:51:23;97084.16;;;-1.20;73.31
12973;BME280;6551;51.056;9.466;2022-11-20T03:53:51;97077.78;;;-1.17;72.73
12973;BME280;6551;51.056;9.466;2022-11-20T03:56:22;97073.72;;;-1.12;72.39
12973;BME280;6551;51.056;9.466;2022-11-20T03:58:48;97070.47;;;-1.14;72.64
12973;BME280;6551;51.056;9.466;2022-11-20T04:01:23;97064.88;;;-1.11;72.55
12973;BME280;6551;51.056;9.466;2022-11-20T04:03:52;97060.34;;;-1.01;72.04
12973;BME280;6551;51.056;9.466;2022-11-20T04:06:21;97064.63;;;-0.92;72.67
12973;BME280;6551;51.056;9.466;2022-11-20T04:08:47;97068.53;;;-0.80;73.08
12973;BME280;6551;51.056;9.466;2022-11-20T04:11:20;97069.53;;;-0.65;72.52
12973;BME280;6551;51.056;9.466;2022-11-20T04:14:33;97064.44;;;-0.58;72.72
12973;BME280;6551;51.056;9.466;2022-11-20T04:16:36;97080.13;;;-0.58;72.57
12973;BME280;6551;51.056;9.466;2022-11-20T04:19:04;97068.53;;;-0.55;72.04
12973;BME280;6551;51.056;9.466;2022-11-20T04:21:31;97073.41;;;-0.52;72.31
12973;BME280;6551;51.056;9.466;2022-11-20T04:23:57;97067.88;;;-0.49;72.22
12973;BME280;6551;51.056;9.466;2022-11-20T04:26:25;97065.56;;;-0.44;73.12
12973;BME280;6551;51.056;9.466;2022-11-20T04:28:51;97067.69;;;-0.24;73.38
12973;BME280;6551;51.056;9.466;2022-11-20T04:31:24;97069.66;;;-0.26;72.87
12973;BME280;6551;51.056;9.466;2022-11-20T04:33:50;97059.00;;;-0.24;72.06
12973;BME280;6551;51.056;9.466;2022-11-20T04:36:22;97060.00;;;-0.25;72.44
12973;BME280;6551;51.056;9.466;2022-11-20T04:38:52;97063.28;;;-0.31;71.95
12973;BME280;6551;51.056;9.466;2022-11-20T04:41:21;97072.41;;;-0.27;72.49
12973;BME280;6551;51.056;9.466;2022-11-20T04:43:53;97068.34;;;-0.38;72.20
12973;BME280;6551;51.056;9.466;2022-11-20T04:46:26;97065.56;;;-0.44;72.77
12973;BME280;6551;51.056;9.466;2022-11-20T04:48:52;97068.19;;;-0.44;73.09
12973;BME280;6551;51.056;9.466;2022-11-20T04:51:18;97077.19;;;-0.47;72.98
12973;BME280;6551;51.056;9.466;2022-11-20T04:53:44;97073.75;;;-0.39;73.83
12973;BME280;6551;51.056;9.466;2022-11-20T04:56:11;97062.44;;;-0.24;73.63
12973;BME280;6551;51.056;9.466;2022-11-20T04:58:38;97065.56;;;-0.20;73.75
12973;BME280;6551;51.056;9.466;2022-11-20T05:01:07;97067.81;;;-0.09;74.26
12973;BME280;6551;51.056;9.466;2022-11-20T05:03:34;97064.84;;;0.02;74.69
12973;BME280;6551;51.056;9.466;2022-11-20T05:06:02;97050.09;;;0.09;73.22
12973;BME280;6551;51.056;9.466;2022-11-20T05:08:30;97049.63;;;0.14;74.10
12973;BME280;6551;51.056;9.466;2022-11-20T05:11:05;97041.53;;;0.23;73.88
12973;BME280;6551;51.056;9.466;2022-11-20T05:13:31;97046.78;;;0.23;73.60
12973;BME280;6551;51.056;9.466;2022-11-20T05:16:06;97025.47;;;0.34;72.71
12973;BME280;6551;51.056;9.466;2022-11-20T05:18:34;97031.06;;;0.23;73.57
12973;BME280;6551;51.056;9.466;2022-11-20T05:21:00;97046.78;;;0.23;73.19
12973;BME280;6551;51.056;9.466;2022-11-20T05:23:28;97037.66;;;0.19;72.88
12973;BME280;6551;51.056;9.466;2022-11-20T05:25:56;97028.78;;;0.20;73.78
12973;BME280;6551;51.056;9.466;2022-11-20T05:28:22;97036.34;;;0.15;74.19
12973;BME280;6551;51.056;9.466;2022-11-20T05:30:48;97045.16;;;0.22;74.54
12973;BME280;6551;51.056;9.466;2022-11-20T05:33:14;97042.72;;;0.21;73.90
12973;BME280;6551;51.056;9.466;2022-11-20T05:35:40;97038.28;;;0.21;73.95
12973;BME280;6551;51.056;9.466;2022-11-20T05:38:06;97041.88;;;0.20;74.13
12973;BME280;6551;51.056;9.466;2022-11-20T05:40:32;97049.41;;;0.23;73.57
12973;BME280;6551;51.056;9.466;2022-11-20T05:42:57;97049.41;;;0.23;74.34
12973;BME280;6551;51.056;9.466;2022-11-20T05:45:23;97050.72;;;0.27;74.58
12973;BME280;6551;51.056;9.466;2022-11-20T05:47:49;97054.91;;;0.36;74.64
12973;BME280;6551;51.056;9.466;2022-11-20T05:50:14;97055.91;;;0.35;74.36
12973;BME280;6551;51.056;9.466;2022-11-20T05:52:40;97049.81;;;0.43;75.31
12973;BME280;6551;51.056;9.466;2022-11-20T05:55:07;97041.63;;;0.46;75.38
12973;BME280;6551;51.056;9.466;2022-11-20T05:57:33;97040.41;;;0.56;75.50
12973;BME280;6551;51.056;9.466;2022-11-20T05:59:58;97041.19;;;0.65;74.89
12973;BME280;6551;51.056;9.466;2022-11-20T06:02:24;97032.00;;;0.69;74.76
12973;BME280;6551;51.056;9.466;2022-11-20T06:04:50;97033.84;;;0.91;74.98
12973;BME280;6551;51.056;9.466;2022-11-20T06:07:15;97035.59;;;0.99;74.40
12973;BME280;6551;51.056;9.466;2022-11-20T06:09:41;97030.69;;;0.96;75.00
12973;BME280;6551;51.056;9.466;2022-11-20T06:12:07;97036.75;;;0.96;75.51
12973;BME280;6551;51.056;9.466;2022-11-20T06:14:33;97027.28;;;0.65;75.13
12973;BME280;6551;51.056;9.466;2022-11-20T06:16:59;97033.72;;;0.85;74.03
12973;BME280;6551;51.056;9.466;2022-11-20T06:19:27;97032.84;;;0.62;74.74
12973;BME280;6551;51.056;9.466;2022-11-20T06:21:53;97037.00;;;0.79;74.45
12973;BME280;6551;51.056;9.466;2022-11-20T06:24:19;97049.63;;;0.75;74.33
12973;BME280;6551;51.056;9.466;2022-11-20T06:26:45;97055.25;;;0.72;74.47
12973;BME280;6551;51.056;9.466;2022-11-20T06:29:10;97050.50;;;0.68;75.50
12973;BME280;6551;51.056;9.466;2022-11-20T06:31:36;97046.22;;;0.75;75.53
12973;BME280;6551;51.056;9.466;2022-11-20T06:34:05;97041.63;;;0.77;75.93
12973;BME280;6551;51.056;9.466;2022-11-20T06:36:31;97040.94;;;0.83;75.55
12973;BME280;6551;51.056;9.466;2022-11-20T06:38:57;97031.72;;;0.87;75.15
12973;BME280;6551;51.056;9.466;2022-11-20T06:41:23;97042.03;;;0.88;75.77
12973;BME280;6551;51.056;9.466;2022-11-20T06:43:49;97042.97;;;0.95;76.11
12973;BME280;6551;51.056;9.466;2022-11-20T06:46:17;97052.00;;;0.93;75.07
12973;BME280;6551;51.056;9.466;2022-11-20T06:48:43;97050.53;;;0.90;75.02
12973;BME280;6551;51.056;9.466;2022-11-20T06:51:09;97052.28;;;0.98;74.90
12973;BME280;6551;51.056;9.466;2022-11-20T06:53:36;97042.75;;;1.05;75.89
12973;BME280;6551;51.056;9.466;2022-11-20T06:56:02;97044.72;;;1.03;75.93
12973;BME280;6551;51.056;9.466;2022-11-20T06:58:31;97041.41;;;1.09;75.71
12973;BME280;6551;51.056;9.466;2022-11-20T07:01:06;97044.16;;;1.15;75.72
12973;BME280;6551;51.056;9.466;2022-11-20T07:03:32;97042.16;;;1.17;75.11
12973;BME280;6551;51.056;9.466;2022-11-20T07:05:58;97038.91;;;1.15;75.75
12973;BME280;6551;51.056;9.466;2022-11-20T07:08:25;97038.38;;;1.20;75.61
12973;BME280;6551;51.056;9.466;2022-11-20T07:10:51;97030.63;;;1.27;75.74
12973;BME280;6551;51.056;9.466;2022-11-20T07:13:17;97026.00;;;1.29;75.36
12973;BME280;6551;51.056;9.466;2022-11-20T07:15:42;97029.94;;;1.33;74.91
12973;BME280;6551;51.056;9.466;2022-11-20T07:18:08;97029.72;;;1.34;74.91
12973;BME280;6551;51.056;9.466;2022-11-20T07:20:34;97037.09;;;1.39;75.00
12973;BME280;6551;51.056;9.466;2022-11-20T07:23:00;97041.88;;;1.35;74.25
12973;BME280;6551;51.056;9.466;2022-11-20T07:25:27;97044.31;;;1.37;74.53
12973;BME280;6551;51.056;9.466;2022-11-20T07:28:00;97040.81;;;1.44;74.82
12973;BME280;6551;51.056;9.466;2022-11-20T07:30:27;97042.16;;;1.40;74.40
12973;BME280;6551;51.056;9.466;2022-11-20T07:32:54;97040.00;;;1.44;74.84
12973;BME280;6551;51.056;9.466;2022-11-20T07:35:21;97039.56;;;1.55;74.61
12973;BME280;6551;51.056;9.466;2022-11-20T07:37:48;97037.16;;;1.68;74.80
12973;BME280;6551;51.056;9.466;2022-11-20T07:40:15;97039.22;;;1.58;74.09
12973;BME280;6551;51.056;9.466;2022-11-20T07:42:49;97047.09;;;1.58;74.22
12973;BME280;6551;51.056;9.466;2022-11-20T07:45:16;97050.50;;;1.58;74.24
12973;BME280;6551;51.056;9.466;2022-11-20T07:47:42;97059.94;;;1.67;75.24
12973;BME280;6551;51.056;9.466;2022-11-20T07:50:08;97050.19;;;1.76;74.26
12973;BME280;6551;51.056;9.466;2022-11-20T07:52:33;97056.53;;;1.82;74.76
12973;BME280;6551;51.056;9.466;2022-11-20T07:54:59;97053.34;;;1.86;74.34
12973;BME280;6551;51.056;9.466;2022-11-20T07:57:25;97054.84;;;1.89;74.67
12973;BME280;6551;51.056;9.466;2022-11-20T07:59:50;97052.84;;;1.91;75.20
12973;BME280;6551;51.056;9.466;2022-11-20T08:02:16;97053.00;;;1.89;74.35
12973;BME280;6551;51.056;9.466;2022-11-20T08:04:41;97050.00;;;1.92;74.70
12973;BME280;6551;51.056;9.466;2022-11-20T08:07:07;97053.31;;;1.94;75.35
12973;BME280;6551;51.056;9.466;2022-11-20T08:09:33;97057.28;;;2.05;74.23
12973;BME280;6551;51.056;9.466;2022-11-20T08:11:58;97058.38;;;2.10;74.35
12973;BME280;6551;51.056;9.466;2022-11-20T08:14:43;97050.03;;;2.07;74.68
12973;BME280;6551;51.056;9.466;2022-11-20T08:17:09;97057.00;;;2.14;73.81
12973;BME280;6551;51.056;9.466;2022-11-20T08:19:35;97060.91;;;2.18;74.38
12973;BME280;6551;51.056;9.466;2022-11-20T08:22:01;97067.78;;;2.34;73.59
12973;BME280;6551;51.056;9.466;2022-11-20T08:24:26;97065.41;;;2.39;73.51
12973;BME280;6551;51.056;9.466;2022-11-20T08:26:52;97062.63;;;2.41;73.79
12973;BME280;6551;51.056;9.466;2022-11-20T08:29:18;97059.91;;;2.49;73.30
12973;BME280;6551;51.056;9.466;2022-11-20T08:31:44;97064.22;;;2.56;72.95
12973;BME280;6551;51.056;9.466;2022-11-20T08:34:09;97064.69;;;2.60;73.72
12973;BME280;6551;51.056;9.466;2022-11-20T08:36:36;97066.69;;;2.58;73.38
12973;BME280;6551;51.056;9.466;2022-11-20T08:39:02;97059.06;;;2.63;72.48
12973;BME280;6551;51.056;9.466;2022-11-20T08:41:29;97050.25;;;2.56;72.46
12973;BME280;6551;51.056;9.466;2022-11-20T08:44:03;97045.94;;;2.48;73.25
12973;BME280;6551;51.056;9.466;2022-11-20T08:46:39;97063.25;;;2.43;74.41
12973;BME280;6551;51.056;9.466;2022-11-20T08:49:08;97053.19;;;2.61;74.60
12973;BME280;6551;51.056;9.466;2022-11-20T08:51:35;97058.38;;;2.75;74.99
12973;BME280;6551;51.056;9.466;2022-11-20T08:54:02;97060.28;;;2.81;74.95
12973;BME280;6551;51.056;9.466;2022-11-20T08:56:28;97068.97;;;2.97;74.90
12973;BME280;6551;51.056;9.466;2022-11-20T08:58:54;97065.41;;;3.04;74.01
12973;BME280;6551;51.056;9.466;2022-11-20T09:01:20;97067.66;;;3.07;73.94
12973;BME280;6551;51.056;9.466;2022-11-20T09:03:46;97070.91;;;3.09;74.83
12973;BME280;6551;51.056;9.466;2022-11-20T09:06:13;97079.69;;;3.16;73.92
12973;BME280;6551;51.056;9.466;2022-11-20T09:08:39;97072.69;;;3.23;73.93
12973;BME280;6551;51.056;9.466;2022-11-20T09:11:05;97071.69;;;3.24;73.61
12973;BME280;6551;51.056;9.466;2022-11-20T09:13:33;97067.38;;;3.38;73.35
12973;BME280;6551;51.056;9.466;2022-11-20T09:16:06;97076.75;;;3.47;72.20
12973;BME280;6551;51.056;9.466;2022-11-20T09:18:34;97063.09;;;3.37;71.73
12973;BME280;6551;51.056;9.466;2022-11-20T09:21:05;97071.06;;;3.43;72.33
12973;BME280;6551;51.056;9.466;2022-11-20T09:23:33;97073.47;;;3.45;72.07
12973;BME280;6551;51.056;9.466;2022-11-20T09:26:09;97068.06;;;3.46;72.12
12973;BME280;6551;51.056;9.466;2022-11-20T09:28:36;97072.66;;;3.44;71.95
12973;BME280;6551;51.056;9.466;2022-11-20T09:31:06;97074.13;;;3.47;71.75
12973;BME280;6551;51.056;9.466;2022-11-20T09:33:32;97074.25;;;3.60;71.56
12973;BME280;6551;51.056;9.466;2022-11-20T09:35:57;97071.28;;;3.70;71.20
12973;BME280;6551;51.056;9.466;2022-11-20T09:38:23;97076.22;;;3.79;71.76
12973;BME280;6551;51.056;9.466;2022-11-20T09:41:05;97076.94;;;3.94;70.96
12973;BME280;6551;51.056;9.466;2022-11-20T09:46:44;97073.38;;;4.02;71.00
12973;BME280;6551;51.056;9.466;2022-11-20T09:54:21;97064.88;;;4.06;71.36
12973;BME280;6551;51.056;9.466;2022-11-20T09:56:54;97065.09;;;4.11;70.99
12973;BME280;6551;51.056;9.466;2022-11-20T09:59:39;97067.78;;;4.18;71.29
12973;BME280;6551;51.056;9.466;2022-11-20T10:05:20;97068.69;;;4.32;71.05
12973;BME280;6551;51.056;9.466;2022-11-20T10:13:57;97073.13;;;4.25;71.50
12973;BME280;6551;51.056;9.466;2022-11-20T10:22:37;97058.41;;;4.43;70.40
12973;BME280;6551;51.056;9.466;2022-11-20T10:31:37;97062.53;;;4.52;69.58
12973;BME280;6551;51.056;9.466;2022-11-20T10:34:26;97058.84;;;4.53;69.80
12973;BME280;6551;51.056;9.466;2022-11-20T10:37:27;97061.06;;;4.50;69.40
12973;BME280;6551;51.056;9.466;2022-11-20T10:40:20;97050.94;;;4.47;69.31
12973;BME280;6551;51.056;9.466;2022-11-20T10:42:59;97052.94;;;4.45;69.79
12973;BME280;6551;51.056;9.466;2022-11-20T10:48:14;97042.59;;;4.50;69.98
12973;BME280;6551;51.056;9.466;2022-11-20T10:56:50;97035.66;;;4.83;69.68
12973;BME280;6551;51.056;9.466;2022-11-20T11:01:56;97026.19;;;5.02;68.84
12973;BME280;6551;51.056;9.466;2022-11-20T11:04:44;97026.22;;;5.15;69.26
12973;BME280;6551;51.056;9.466;2022-11-20T11:09:54;97021.94;;;5.07;68.89
12973;BME280;6551;51.056;9.466;2022-11-20T11:12:28;97029.03;;;5.07;69.61
12973;BME280;6551;51.056;9.466;2022-11-20T11:14:56;97027.63;;;5.17;70.10
12973;BME280;6551;51.056;9.466;2022-11-20T11:17:34;97025.44;;;5.27;69.87
12973;BME280;6551;51.056;9.466;2022-11-20T11:20:02;97017.31;;;5.36;68.88
12973;BME280;6551;51.056;9.466;2022-11-20T11:22:32;97017.09;;;5.37;68.99
12973;BME280;6551;51.056;9.466;2022-11-20T11:24:58;97020.84;;;4.89;68.82
12973;BME280;6551;51.056;9.466;2022-11-20T11:27:24;97015.47;;;4.49;70.22
12973;BME280;6551;51.056;9.466;2022-11-20T11:30:12;97012.47;;;4.18;71.50
12973;BME280;6551;51.056;9.466;2022-11-20T11:32:40;97015.28;;;4.17;72.65
12973;BME280;6551;51.056;9.466;2022-11-20T11:35:20;97022.41;;;4.23;73.49
12973;BME280;6551;51.056;9.466;2022-11-20T11:37:47;97019.31;;;4.12;72.88
12973;BME280;6551;51.056;9.466;2022-11-20T11:40:15;97008.13;;;4.04;73.19
12973;BME280;6551;51.056;9.466;2022-11-20T11:42:49;97006.16;;;4.12;73.54
12973;BME280;6551;51.056;9.466;2022-11-20T11:45:16;97006.25;;;3.98;73.62
12973;BME280;6551;51.056;9.466;2022-11-20T11:47:47;97006.25;;;3.91;73.99
12973;BME280;6551;51.056;9.466;2022-11-20T11:50:19;97003.22;;;3.67;74.27
12973;BME280;6551;51.056;9.466;2022-11-20T11:53:14;97011.03;;;3.81;74.81
12973;BME280;6551;51.056;9.466;2022-11-20T11:56:09;96998.88;;;3.80;74.77
12973;BME280;6551;51.056;9.466;2022-11-20T11:58:50;96989.66;;;3.97;74.83
12973;BME280;6551;51.056;9.466;2022-11-20T12:01:46;96988.59;;;3.92;74.26
12973;BME280;6551;51.056;9.466;2022-11-20T12:04:48;96984.69;;;3.81;74.96
12973;BME280;6551;51.056;9.466;2022-11-20T12:07:28;96992.13;;;3.71;74.95
12973;BME280;6551;51.056;9.466;2022-11-20T12:09:58;96991.75;;;3.74;74.84
12973;BME280;6551;51.056;9.466;2022-11-20T12:12:36;96998.38;;;3.70;75.05
12973;BME280;6551;51.056;9.466;2022-11-20T12:15:09;96999.06;;;3.51;75.71
12973;BME280;6551;51.056;9.466;2022-11-20T12:17:36;96997.69;;;3.55;76.35
12973;BME280;6551;51.056;9.466;2022-11-20T12:20:02;96992.31;;;3.70;76.79
12973;BME280;6551;51.056;9.466;2022-11-20T12:22:41;96987.16;;;3.83;76.20
12973;BME280;6551;51.056;9.466;2022-11-20T12:25:29;96979.69;;;3.93;75.28
12973;BME280;6551;51.056;9.466;2022-11-20T12:28:11;96977.19;;;4.12;75.03
12973;BME280;6551;51.056;9.466;2022-11-20T12:39:12;96979.66;;;4.21;74.22
12973;BME280;6551;51.056;9.466;2022-11-20T12:51:40;96992.50;;;3.68;76.53
12973;BME280;6551;51.056;9.466;2022-11-20T13:00:20;96976.69;;;3.96;76.17
12973;BME280;6551;51.056;9.466;2022-11-20T13:03:23;96963.28;;;4.32;75.93
12973;BME280;6551;51.056;9.466;2022-11-20T13:05:59;96965.38;;;4.49;74.70
12973;BME280;6551;51.056;9.466;2022-11-20T13:08:33;96961.75;;;4.57;74.18
12973;BME280;6551;51.056;9.466;2022-11-20T13:11:32;96960.75;;;4.58;73.53
12973;BME280;6551;51.056;9.466;2022-11-20T13:19:32;96958.75;;;4.12;72.48
12973;BME280;6551;51.056;9.466;2022-11-20T13:21:58;96953.53;;;4.26;73.80
12973;BME280;6551;51.056;9.466;2022-11-20T13:24:29;96958.00;;;4.32;73.65
12973;BME280;6551;51.056;9.466;2022-11-20T13:29:35;96948.91;;;3.93;73.98
12973;BME280;6551;51.056;9.466;2022-11-20T13:32:22;96956.13;;;3.78;74.74
12973;BME280;6551;51.056;9.466;2022-11-20T13:34:57;96950.28;;;3.83;75.31
12973;BME280;6551;51.056;9.466;2022-11-20T13:37:37;96956.25;;;3.70;75.74
12973;BME280;6551;51.056;9.466;2022-11-20T13:45:41;96955.22;;;3.65;76.49
12973;BME280;6551;51.056;9.466;2022-11-20T13:48:26;96960.69;;;3.63;75.96
12973;BME280;6551;51.056;9.466;2022-11-20T13:56:17;96935.03;;;3.72;75.47
12973;BME280;6551;51.056;9.466;2022-11-20T13:59:18;96940.97;;;3.87;75.49
12973;BME280;6551;51.056;9.466;2022-11-20T14:01:50;96927.81;;;3.87;74.39
12973;BME280;6551;51.056;9.466;2022-11-20T14:04:23;96926.22;;;3.86;74.56
12973;BME280;6551;51.056;9.466;2022-11-20T14:06:51;96923.97;;;3.89;74.83
12973;BME280;6551;51.056;9.466;2022-11-20T14:09:32;96917.75;;;3.97;75.09
12973;BME280;6551;51.056;9.466;2022-11-20T14:11:58;96915.97;;;4.10;75.05
12973;BME280;6551;51.056;9.466;2022-11-20T14:14:30;96911.97;;;4.28;74.67
12973;BME280;6551;51.056;9.466;2022-11-20T14:17:23;96907.94;;;4.32;74.49
12973;BME280;6551;51.056;9.466;2022-11-20T14:19:51;96901.03;;;4.31;74.08
12973;BME280;6551;51.056;9.466;2022-11-20T14:24:46;96894.78;;;4.32;71.81
12973;BME280;6551;51.056;9.466;2022-11-20T14:27:18;96888.25;;;4.28;72.54
12973;BME280;6551;51.056;9.466;2022-11-20T14:29:47;96897.63;;;4.30;72.92
12973;BME280;6551;51.056;9.466;2022-11-20T14:32:23;96894.97;;;4.30;73.10
12973;BME280;6551;51.056;9.466;2022-11-20T14:34:52;96885.06;;;4.45;73.60
12973;BME280;6551;51.056;9.466;2022-11-20T14:37:24;96881.25;;;4.54;73.04
12973;BME280;6551;51.056;9.466;2022-11-20T14:39:54;96890.19;;;4.60;72.79
12973;BME280;6551;51.056;9.466;2022-11-20T14:42:26;96882.88;;;4.62;72.21
12973;BME280;6551;51.056;9.466;2022-11-20T14:44:56;96876.41;;;4.78;72.23
12973;BME280;6551;51.056;9.466;2022-11-20T14:47:26;96875.78;;;4.76;72.32
12973;BME280;6551;51.056;9.466;2022-11-20T14:49:54;96872.75;;;4.72;72.99
12973;BME280;6551;51.056;9.466;2022-11-20T14:52:23;96863.81;;;4.66;72.22
12973;BME280;6551;51.056;9.466;2022-11-20T14:54:55;96856.13;;;4.71;72.70
12973;BME280;6551;51.056;9.466;2022-11-20T14:57:33;96853.06;;;4.68;72.80
12973;BME280;6551;51.056;9.466;2022-11-20T15:02:45;96849.84;;;4.79;72.59
12973;BME280;6551;51.056;9.466;2022-11-20T15:05:12;96844.34;;;4.67;73.21
12973;BME280;6551;51.056;9.466;2022-11-20T15:07:43;96843.75;;;4.79;73.71
12973;BME280;6551;51.056;9.466;2022-11-20T15:10:26;96841.13;;;4.85;73.54